createdAt,value
2023-03-13T00:01:40.942Z,100246.19
2023-03-13T00:04:08.766Z,100238.00
2023-03-13T00:06:37.900Z,100223.53
2023-03-13T00:09:09.587Z,100222.66
2023-03-13T00:11:37.435Z,100218.09
2023-03-13T00:14:07.057Z,100198.81
2023-03-13T00:16:37.464Z,100206.75
2023-03-13T00:19:06.904Z,100201.75
2023-03-13T00:21:34.810Z,100189.91
2023-03-13T00:24:02.660Z,100184.66
2023-03-13T00:26:31.896Z,100185.16
2023-03-13T00:28:59.776Z,100185.53
2023-03-13T00:31:28.946Z,100177.50
2023-03-13T00:33:59.685Z,100172.69
2023-03-13T00:36:29.293Z,100166.41
2023-03-13T00:38:57.948Z,100166.31
2023-03-13T00:41:28.043Z,100172.19
2023-03-13T00:43:57.964Z,100161.00
2023-03-13T00:46:27.996Z,100166.78
2023-03-13T00:48:55.864Z,100163.94
2023-03-13T00:51:26.889Z,100163.41
2023-03-13T00:53:55.396Z,100161.59
2023-03-13T00:56:23.323Z,100167.50
2023-03-13T00:58:51.683Z,100158.63
2023-03-13T01:01:22.626Z,100177.78
2023-03-13T01:03:52.642Z,100186.50
2023-03-13T01:06:22.898Z,100176.38
2023-03-13T01:08:51.268Z,100192.75
2023-03-13T01:11:21.873Z,100210.13
2023-03-13T01:13:50.497Z,100172.19
2023-03-13T01:16:21.917Z,100167.16
2023-03-13T01:18:52.179Z,100166.78
2023-03-13T01:21:20.930Z,100173.97
2023-03-13T01:23:49.852Z,100178.31
2023-03-13T01:26:18.279Z,100164.81
2023-03-13T01:28:46.537Z,100162.97
2023-03-13T01:31:15.457Z,100165.22
2023-03-13T01:33:44.569Z,100158.47
2023-03-13T01:36:12.523Z,100127.28
2023-03-13T01:38:40.679Z,100157.00
2023-03-13T01:41:10.226Z,100153.13
2023-03-13T01:43:38.837Z,100164.06
2023-03-13T01:46:14.491Z,100159.31
2023-03-13T01:48:49.720Z,100141.84
2023-03-13T01:51:22.440Z,100151.09
2023-03-13T01:53:55.214Z,100132.03
2023-03-13T01:56:28.785Z,100148.53
2023-03-13T01:58:59.202Z,100138.25
2023-03-13T02:01:28.127Z,100131.28
2023-03-13T02:03:59.030Z,100134.25
2023-03-13T02:06:30.775Z,100135.91
2023-03-13T02:09:03.056Z,100129.00
2023-03-13T02:11:39.682Z,100117.81
2023-03-13T02:14:07.602Z,100116.50
2023-03-13T02:16:37.381Z,100115.00
2023-03-13T02:19:18.273Z,100114.81
2023-03-13T02:21:52.874Z,100116.75
2023-03-13T02:24:29.183Z,100113.13
2023-03-13T02:26:58.481Z,100102.59
2023-03-13T02:29:26.848Z,100103.94
2023-03-13T02:31:55.068Z,100095.41
2023-03-13T02:34:26.825Z,100093.91
2023-03-13T02:36:55.054Z,100085.06
2023-03-13T02:39:25.987Z,100076.22
2023-03-13T02:41:54.372Z,100065.25
2023-03-13T02:44:23.504Z,100054.47
2023-03-13T02:46:53.091Z,100068.44
2023-03-13T02:49:25.200Z,100061.81
2023-03-13T02:51:54.627Z,100067.69
2023-03-13T02:54:27.642Z,100059.56
2023-03-13T02:56:58.631Z,100041.66
2023-03-13T02:59:28.100Z,100048.63
2023-03-13T03:01:55.953Z,100043.50
2023-03-13T03:04:25.431Z,100031.50
2023-03-13T03:06:54.064Z,100023.25
2023-03-13T03:09:22.364Z,100031.50
2023-03-13T03:11:50.600Z,100008.88
2023-03-13T03:14:18.433Z,100010.38
2023-03-13T03:16:47.740Z,100008.16
2023-03-13T03:19:15.859Z,100002.03
2023-03-13T03:21:43.711Z,99993.91
2023-03-13T03:24:11.486Z,99995.63
2023-03-13T03:26:39.329Z,99981.28
2023-03-13T03:29:08.257Z,99986.53
2023-03-13T03:31:36.404Z,99986.28
2023-03-13T03:34:05.538Z,99981.25
2023-03-13T03:36:33.266Z,99989.41
2023-03-13T03:39:01.011Z,99981.34
2023-03-13T03:41:28.879Z,99977.84
2023-03-13T03:43:56.708Z,99964.78
2023-03-13T03:46:24.683Z,99968.59
2023-03-13T03:48:52.437Z,99964.03
2023-03-13T03:51:21.696Z,99965.41
2023-03-13T03:53:49.429Z,99955.94
2023-03-13T03:56:17.228Z,99963.72
2023-03-13T03:58:45.380Z,99950.97
2023-03-13T04:01:13.329Z,99944.44
2023-03-13T04:03:41.140Z,99958.56
2023-03-13T04:06:09.986Z,99959.31
2023-03-13T04:08:39.095Z,99945.72
2023-03-13T04:11:06.870Z,99957.06
2023-03-13T04:13:34.700Z,99949.25
2023-03-13T04:16:08.255Z,99946.56
2023-03-13T04:18:35.982Z,99941.66
2023-03-13T04:21:05.579Z,99947.88
2023-03-13T04:23:33.364Z,99948.41
2023-03-13T04:26:02.479Z,99946.91
2023-03-13T04:28:30.227Z,99954.16
2023-03-13T04:30:58.301Z,99952.56
2023-03-13T04:33:26.456Z,99959.41
2023-03-13T04:35:54.187Z,99950.66
2023-03-13T04:38:22.088Z,99945.50
2023-03-13T04:40:49.915Z,99958.56
2023-03-13T04:43:19.000Z,99945.94
2023-03-13T04:45:47.005Z,99965.97
2023-03-13T04:48:14.777Z,99951.69
2023-03-13T04:50:42.561Z,99953.47
2023-03-13T04:53:10.320Z,99960.31
2023-03-13T04:55:38.075Z,99946.78
2023-03-13T04:58:05.842Z,99942.50
2023-03-13T05:00:35.020Z,99946.59
2023-03-13T05:03:02.797Z,99950.00
2023-03-13T05:05:30.557Z,99935.03
2023-03-13T05:07:58.388Z,99941.00
2023-03-13T05:10:26.321Z,99935.41
2023-03-13T05:12:54.059Z,99935.78
2023-03-13T05:15:21.777Z,99934.72
2023-03-13T05:17:52.969Z,99935.75
2023-03-13T05:20:22.018Z,99942.66
2023-03-13T05:22:49.854Z,99931.34
2023-03-13T05:25:17.701Z,99923.22
2023-03-13T05:27:46.504Z,99934.94
2023-03-13T05:30:14.533Z,99922.91
2023-03-13T05:32:42.312Z,99940.97
2023-03-13T05:35:11.462Z,99915.31
2023-03-13T05:37:41.275Z,99908.03
2023-03-13T05:40:10.703Z,99925.59
2023-03-13T05:42:38.456Z,99929.41
2023-03-13T05:45:08.810Z,99923.22
2023-03-13T05:47:38.570Z,99906.31
2023-03-13T05:50:07.823Z,99910.84
2023-03-13T05:52:36.909Z,99908.25
2023-03-13T05:55:04.757Z,99902.53
2023-03-13T05:57:32.444Z,99881.56
2023-03-13T06:00:00.558Z,99895.84
2023-03-13T06:02:28.332Z,99885.22
2023-03-13T06:04:56.227Z,99900.31
2023-03-13T06:07:24.013Z,99885.03
2023-03-13T06:09:53.067Z,99890.59
2023-03-13T06:12:20.803Z,99871.59
2023-03-13T06:14:48.504Z,99879.63
2023-03-13T06:17:16.348Z,99881.81
2023-03-13T06:19:44.165Z,99862.63
2023-03-13T06:22:11.853Z,99857.03
2023-03-13T06:24:39.639Z,99866.63
2023-03-13T06:27:09.772Z,99871.28
2023-03-13T06:29:37.640Z,99856.81
2023-03-13T06:32:06.079Z,99859.56
2023-03-13T06:34:34.008Z,99864.13
2023-03-13T06:37:01.880Z,99848.75
2023-03-13T06:39:29.792Z,99850.13
2023-03-13T06:41:57.505Z,99844.47
2023-03-13T06:44:27.204Z,99837.53
2023-03-13T06:46:55.094Z,99839.00
2023-03-13T06:49:22.921Z,99839.28
2023-03-13T06:51:50.656Z,99825.97
2023-03-13T06:54:18.504Z,99842.03
2023-03-13T06:56:46.228Z,99836.63
2023-03-13T06:59:13.967Z,99822.22
2023-03-13T07:01:43.103Z,99822.66
2023-03-13T07:04:14.229Z,99823.91
2023-03-13T07:06:42.020Z,99823.41
2023-03-13T07:09:10.361Z,99821.50
2023-03-13T07:11:38.101Z,99819.47
2023-03-13T07:14:16.614Z,99820.16
2023-03-13T07:16:46.864Z,99818.69
2023-03-13T07:19:15.228Z,99812.56
2023-03-13T07:21:43.985Z,99825.28
2023-03-13T07:24:11.813Z,99824.69
2023-03-13T07:26:40.340Z,99814.00
2023-03-13T07:29:08.991Z,99812.41
2023-03-13T07:31:36.844Z,99809.78
2023-03-13T07:34:06.224Z,99813.47
2023-03-13T07:36:35.440Z,99801.78
2023-03-13T07:39:03.289Z,99798.13
2023-03-13T07:41:31.023Z,99790.81
2023-03-13T07:43:58.719Z,99791.03
2023-03-13T07:46:26.656Z,99785.81
2023-03-13T07:48:55.238Z,99784.72
2023-03-13T07:51:42.178Z,99779.06
2023-03-13T07:54:11.816Z,99782.81
2023-03-13T07:56:39.937Z,99782.22
2023-03-13T07:59:07.933Z,99779.66
2023-03-13T08:01:35.883Z,99776.97
2023-03-13T08:04:04.097Z,99780.31
2023-03-13T08:06:36.689Z,99778.41
2023-03-13T08:09:05.598Z,99772.50
2023-03-13T08:11:33.637Z,99766.22
2023-03-13T08:14:01.429Z,99770.03
2023-03-13T08:16:31.056Z,99762.88
2023-03-13T08:19:00.058Z,99761.41
2023-03-13T08:21:29.714Z,99759.88
2023-03-13T08:24:01.201Z,99754.31
2023-03-13T08:26:30.773Z,99756.72
2023-03-13T08:29:00.224Z,99752.44
2023-03-13T08:31:30.076Z,99750.22
2023-03-13T08:33:58.187Z,99738.75
2023-03-13T08:36:27.275Z,99731.31
2023-03-13T08:38:58.947Z,99730.28
2023-03-13T08:41:29.621Z,99716.59
2023-03-13T08:43:58.598Z,99725.09
2023-03-13T08:46:26.942Z,99704.94
2023-03-13T08:48:55.947Z,99715.44
2023-03-13T08:51:25.381Z,99709.59
2023-03-13T08:53:53.755Z,99713.50
2023-03-13T08:56:23.548Z,99708.50
2023-03-13T08:58:53.695Z,99715.22
2023-03-13T09:01:23.127Z,99712.19
2023-03-13T09:03:51.493Z,99700.25
2023-03-13T09:06:19.406Z,99703.78
2023-03-13T09:08:47.163Z,99684.91
2023-03-13T09:11:17.312Z,99691.53
2023-03-13T09:13:47.250Z,99692.63
2023-03-13T09:16:18.042Z,99685.31
2023-03-13T09:18:46.137Z,99670.53
2023-03-13T09:21:16.637Z,99680.06
2023-03-13T09:23:44.376Z,99672.59
2023-03-13T09:26:13.193Z,99672.28
2023-03-13T09:28:42.069Z,99680.03
2023-03-13T09:31:11.621Z,99672.50
2023-03-13T09:33:41.512Z,99673.72
2023-03-13T09:36:10.038Z,99666.84
2023-03-13T09:38:38.270Z,99664.47
2023-03-13T09:41:21.069Z,99681.66
2023-03-13T09:43:53.012Z,99671.03
2023-03-13T09:46:26.559Z,99665.28
2023-03-13T09:48:58.503Z,99669.28
2023-03-13T09:51:30.544Z,99665.28
2023-03-13T09:54:03.067Z,99660.28
2023-03-13T09:56:35.254Z,99657.06
2023-03-13T09:59:12.974Z,99654.09
2023-03-13T10:01:44.057Z,99636.16
2023-03-13T10:04:28.779Z,99655.31
2023-03-13T10:06:56.705Z,99650.53
2023-03-13T10:09:29.410Z,99644.75
2023-03-13T10:12:05.886Z,99652.19
2023-03-13T10:14:42.947Z,99630.91
2023-03-13T10:17:21.190Z,99648.91
2023-03-13T10:19:56.994Z,99653.03
2023-03-13T10:22:27.769Z,99637.66
2023-03-13T10:24:59.275Z,99647.03
2023-03-13T10:27:27.200Z,99645.78
2023-03-13T10:29:55.024Z,99645.78
2023-03-13T10:32:23.030Z,99657.34
2023-03-13T10:34:58.349Z,99642.19
2023-03-13T10:37:27.580Z,99643.97
2023-03-13T10:39:56.085Z,99634.13
2023-03-13T10:42:28.800Z,99627.28
2023-03-13T10:45:00.613Z,99637.94
2023-03-13T10:47:29.062Z,99624.09
2023-03-13T10:49:59.699Z,99617.94
2023-03-13T10:52:33.630Z,99615.53
2023-03-13T10:55:03.856Z,99608.81
2023-03-13T10:57:32.684Z,99602.88
2023-03-13T11:00:03.771Z,99607.72
2023-03-13T11:02:35.463Z,99598.50
2023-03-13T11:05:31.668Z,99600.31
2023-03-13T11:07:59.424Z,99603.91
2023-03-13T11:10:29.871Z,99604.44
2023-03-13T11:12:59.949Z,99612.91
2023-03-13T11:15:33.667Z,99587.00
2023-03-13T11:18:07.721Z,99590.72
2023-03-13T11:20:40.378Z,99579.41
2023-03-13T11:23:19.754Z,99579.75
2023-03-13T11:26:01.118Z,99588.78
2023-03-13T11:28:40.978Z,99571.50
2023-03-13T11:31:15.655Z,99572.47
2023-03-13T11:33:57.514Z,99563.97
2023-03-13T11:36:35.090Z,99566.69
2023-03-13T11:39:17.520Z,99561.31
2023-03-13T11:41:59.610Z,99556.66
2023-03-13T11:44:47.837Z,99556.63
2023-03-13T11:47:33.766Z,99534.53
2023-03-13T11:50:20.027Z,99536.91
2023-03-13T11:53:05.143Z,99527.88
2023-03-13T11:55:46.623Z,99523.84
2023-03-13T11:58:35.430Z,99521.50
2023-03-13T12:01:07.584Z,99515.47
2023-03-13T12:03:41.809Z,99504.00
2023-03-13T12:06:27.997Z,99511.09
2023-03-13T12:09:04.220Z,99507.47
2023-03-13T12:11:38.086Z,99499.03
2023-03-13T12:14:13.085Z,99512.06
2023-03-13T12:16:44.810Z,99493.53
2023-03-13T12:19:16.157Z,99491.31
2023-03-13T12:21:49.062Z,99488.25
2023-03-13T12:24:27.510Z,99477.19
2023-03-13T12:26:59.703Z,99462.97
2023-03-13T12:29:40.952Z,99461.13
2023-03-13T12:32:17.993Z,99450.25
2023-03-13T12:34:56.611Z,99445.53
2023-03-13T12:37:31.910Z,99448.38
2023-03-13T12:40:10.453Z,99434.13
2023-03-13T12:42:47.017Z,99439.88
2023-03-13T12:45:18.700Z,99447.22
2023-03-13T12:48:10.011Z,99425.47
2023-03-13T12:50:52.654Z,99413.91
2023-03-13T12:53:46.487Z,99419.25
2023-03-13T12:56:42.639Z,99409.94
2023-03-13T12:59:15.740Z,99402.78
2023-03-13T13:01:46.784Z,99404.50
2023-03-13T13:04:16.867Z,99390.88
2023-03-13T13:07:03.018Z,99376.34
2023-03-13T13:09:32.685Z,99389.38
2023-03-13T13:12:04.843Z,99365.59
2023-03-13T13:15:04.021Z,99360.69
2023-03-13T13:17:49.485Z,99346.88
2023-03-13T13:20:37.646Z,99347.75
2023-03-13T13:23:33.649Z,99329.41
2023-03-13T13:26:47.136Z,99328.09
2023-03-13T13:29:57.837Z,99331.16
2023-03-13T13:32:42.158Z,99316.03
2023-03-13T13:35:23.404Z,99313.09
2023-03-13T13:37:51.193Z,99312.44
2023-03-13T13:40:22.913Z,99327.84
2023-03-13T13:42:56.201Z,99308.94
2023-03-13T13:45:28.500Z,99295.38
2023-03-13T13:48:25.412Z,99293.69
2023-03-13T13:51:34.560Z,99291.00
2023-03-13T13:54:04.164Z,99297.38
2023-03-13T13:56:37.364Z,99286.47
2023-03-13T13:59:07.832Z,99283.78
2023-03-13T14:01:37.587Z,99289.31
2023-03-13T14:04:14.430Z,99264.69
2023-03-13T14:06:45.710Z,99281.69
2023-03-13T14:09:23.628Z,99269.06
2023-03-13T14:11:51.446Z,99278.31
2023-03-13T14:14:21.458Z,99235.72
2023-03-13T14:16:50.894Z,99267.47
2023-03-13T14:19:31.096Z,99252.34
2023-03-13T14:22:01.332Z,99250.16
2023-03-13T14:24:29.125Z,99255.59
2023-03-13T14:26:57.181Z,99248.84
2023-03-13T14:29:27.134Z,99248.56
2023-03-13T14:31:56.829Z,99234.78
2023-03-13T14:34:25.836Z,99226.94
2023-03-13T14:37:04.512Z,99219.31
2023-03-13T14:39:39.691Z,99223.94
2023-03-13T14:42:11.707Z,99211.91
2023-03-13T14:44:40.559Z,99188.75
2023-03-13T14:47:10.210Z,99187.91
2023-03-13T14:49:38.503Z,99183.41
2023-03-13T14:52:18.506Z,99186.09
2023-03-13T14:54:54.782Z,99190.03
2023-03-13T14:57:27.507Z,99178.88
2023-03-13T14:59:56.894Z,99175.75
2023-03-13T15:02:27.159Z,99169.97
2023-03-13T15:04:59.370Z,99163.84
2023-03-13T15:07:36.787Z,99179.59
2023-03-13T15:10:20.078Z,99166.38
2023-03-13T15:12:47.877Z,99153.81
2023-03-13T15:15:15.881Z,99159.66
2023-03-13T15:17:43.636Z,99172.09
2023-03-13T15:20:13.715Z,99150.00
2023-03-13T15:22:44.910Z,99159.78
2023-03-13T15:25:17.413Z,99140.81
2023-03-13T15:27:45.205Z,99148.72
2023-03-13T15:30:17.198Z,99146.59
2023-03-13T15:32:46.623Z,99153.41
2023-03-13T15:35:25.243Z,99146.19
2023-03-13T15:37:54.765Z,99135.44
2023-03-13T15:40:24.266Z,99105.75
2023-03-13T15:42:52.885Z,99126.19
2023-03-13T15:45:21.275Z,99119.47
2023-03-13T15:47:49.177Z,99113.53
2023-03-13T15:50:20.386Z,99096.72
2023-03-13T15:52:48.246Z,99085.16
2023-03-13T15:55:17.518Z,99093.50
2023-03-13T15:57:47.238Z,99083.63
2023-03-13T16:00:19.764Z,99081.06
2023-03-13T16:02:47.497Z,99084.88
2023-03-13T16:05:15.432Z,99065.22
2023-03-13T16:07:43.165Z,99074.56
2023-03-13T16:10:18.946Z,99065.53
2023-03-13T16:12:46.777Z,99071.47
2023-03-13T16:15:14.564Z,99070.03
2023-03-13T16:17:42.422Z,99055.34
2023-03-13T16:20:16.062Z,99051.91
2023-03-13T16:22:44.196Z,99062.97
2023-03-13T16:25:12.512Z,99065.75
2023-03-13T16:27:42.041Z,99035.97
2023-03-13T16:30:17.323Z,99076.28
2023-03-13T16:32:45.433Z,99056.69
2023-03-13T16:35:13.204Z,99052.91
2023-03-13T16:37:41.003Z,99078.44
2023-03-13T16:40:18.175Z,99069.03
2023-03-13T16:42:47.717Z,99065.13
2023-03-13T16:45:15.975Z,99052.22
2023-03-13T16:47:45.271Z,99058.41
2023-03-13T16:50:21.922Z,99064.09
2023-03-13T16:52:49.862Z,99056.84
2023-03-13T16:55:18.270Z,99067.06
2023-03-13T16:57:47.751Z,99071.19
2023-03-13T17:00:20.642Z,99063.41
2023-03-13T17:02:50.562Z,99054.91
2023-03-13T17:05:18.922Z,99064.69
2023-03-13T17:07:48.277Z,99071.16
2023-03-13T17:10:21.499Z,99047.53
2023-03-13T17:12:51.201Z,99055.34
2023-03-13T17:15:20.075Z,99058.03
2023-03-13T17:17:51.641Z,99070.13
2023-03-13T17:20:22.256Z,99042.84
2023-03-13T17:22:50.276Z,99056.78
2023-03-13T17:25:18.247Z,99057.75
2023-03-13T17:27:47.487Z,99059.69
2023-03-13T17:30:23.134Z,99056.78
2023-03-13T17:32:51.243Z,99061.16
2023-03-13T17:35:20.693Z,99076.44
2023-03-13T17:37:48.928Z,99074.25
2023-03-13T17:40:19.795Z,99068.91
2023-03-13T17:42:48.963Z,99080.59
2023-03-13T17:45:17.687Z,99069.03
2023-03-13T17:47:49.265Z,99071.00
2023-03-13T17:50:19.858Z,99070.63
2023-03-13T17:52:47.640Z,99052.28
2023-03-13T17:55:15.824Z,99060.69
2023-03-13T17:57:44.267Z,99060.56
2023-03-13T18:00:20.985Z,99048.06
2023-03-13T18:02:50.394Z,99042.38
2023-03-13T18:05:18.706Z,99057.50
2023-03-13T18:07:46.830Z,99047.06
2023-03-13T18:10:20.427Z,99037.50
2023-03-13T18:12:48.386Z,99044.41
2023-03-13T18:15:16.337Z,99038.81
2023-03-13T18:17:44.610Z,99034.19
2023-03-13T18:20:18.586Z,99027.03
2023-03-13T18:22:46.776Z,99025.44
2023-03-13T18:25:15.134Z,99028.84
2023-03-13T18:27:42.938Z,99004.69
2023-03-13T18:30:22.931Z,99026.97
2023-03-13T18:32:51.007Z,99021.66
2023-03-13T18:35:20.223Z,99002.19
2023-03-13T18:37:49.021Z,99007.69
2023-03-13T18:40:19.543Z,98987.59
2023-03-13T18:42:47.907Z,98983.81
2023-03-13T18:45:16.550Z,98971.91
2023-03-13T18:47:44.373Z,98980.78
2023-03-13T18:50:23.563Z,98969.31
2023-03-13T18:52:51.546Z,98966.16
2023-03-13T18:55:19.285Z,98950.66
2023-03-13T18:57:47.066Z,98949.69
2023-03-13T19:00:20.321Z,98957.44
2023-03-13T19:02:49.496Z,98940.78
2023-03-13T19:05:18.309Z,98938.09
2023-03-13T19:07:48.179Z,98929.56
2023-03-13T19:10:20.847Z,98918.16
2023-03-13T19:12:48.726Z,98917.31
2023-03-13T19:15:16.862Z,98924.50
2023-03-13T19:17:45.215Z,98921.03
2023-03-13T19:20:16.103Z,98915.88
2023-03-13T19:22:43.900Z,98930.47
2023-03-13T19:25:14.127Z,98917.38
2023-03-13T19:27:42.307Z,98917.25
2023-03-13T19:30:21.999Z,98917.00
2023-03-13T19:32:50.228Z,98907.78
2023-03-13T19:35:21.168Z,98919.78
2023-03-13T19:37:49.214Z,98928.31
2023-03-13T19:40:22.277Z,98941.28
2023-03-13T19:42:50.135Z,98928.63
2023-03-13T19:45:19.655Z,98937.03
2023-03-13T19:47:47.790Z,98924.38
2023-03-13T19:50:21.085Z,98934.13
2023-03-13T19:52:48.906Z,98911.91
2023-03-13T19:55:17.172Z,98920.16
2023-03-13T19:57:46.453Z,98904.88
2023-03-13T20:00:20.907Z,98908.25
2023-03-13T20:02:49.108Z,98908.28
2023-03-13T20:05:17.075Z,98922.84
2023-03-13T20:07:45.510Z,98934.22
2023-03-13T20:10:13.724Z,98912.63
2023-03-13T20:12:41.455Z,98926.72
2023-03-13T20:15:11.871Z,98919.53
2023-03-13T20:17:39.644Z,98915.06
2023-03-13T20:20:08.563Z,98912.41
2023-03-13T20:22:36.652Z,98918.34
2023-03-13T20:25:04.638Z,98909.72
2023-03-13T20:27:32.391Z,98919.19
2023-03-13T20:30:00.765Z,98913.75
2023-03-13T20:32:30.071Z,98927.19
2023-03-13T20:34:57.941Z,98925.25
2023-03-13T20:37:25.720Z,98918.31
2023-03-13T20:39:53.435Z,98922.59
2023-03-13T20:42:22.651Z,98924.16
2023-03-13T20:44:50.413Z,98919.66
2023-03-13T20:47:18.622Z,98924.41
2023-03-13T20:49:47.848Z,98935.19
2023-03-13T20:52:15.667Z,98924.28
2023-03-13T20:54:43.398Z,98925.72
2023-03-13T20:57:11.363Z,98925.00
2023-03-13T20:59:39.122Z,98926.94
2023-03-13T21:02:07.473Z,98932.75
2023-03-13T21:04:35.263Z,98935.53
2023-03-13T21:07:05.332Z,98937.84
2023-03-13T21:09:34.323Z,98932.88
2023-03-13T21:12:02.596Z,98929.72
2023-03-13T21:14:30.624Z,98930.00
2023-03-13T21:16:58.372Z,98934.06
2023-03-13T21:19:26.117Z,98931.06
2023-03-13T21:21:53.855Z,98931.91
2023-03-13T21:24:22.933Z,98919.66
2023-03-13T21:26:50.635Z,98922.22
2023-03-13T21:29:18.447Z,98927.69
2023-03-13T21:31:46.264Z,98923.31
2023-03-13T21:34:14.015Z,98926.69
2023-03-13T21:36:41.731Z,98937.38
2023-03-13T21:39:09.432Z,98937.88
2023-03-13T21:41:38.572Z,98939.06
2023-03-13T21:44:07.924Z,98929.38
2023-03-13T21:46:35.681Z,98934.97
2023-03-13T21:49:03.783Z,98944.63
2023-03-13T21:51:31.526Z,98937.88
2023-03-13T21:53:59.225Z,98954.94
2023-03-13T21:56:26.924Z,98948.78
2023-03-13T21:58:56.219Z,98948.28
2023-03-13T22:01:24.048Z,98955.19
2023-03-13T22:03:51.913Z,98948.28
2023-03-13T22:06:22.492Z,98956.19
2023-03-13T22:08:51.020Z,98960.56
2023-03-13T22:11:18.865Z,98953.88
2023-03-13T22:13:46.683Z,98955.44
2023-03-13T22:16:15.849Z,98957.13
2023-03-13T22:18:43.948Z,98950.09
2023-03-13T22:21:11.709Z,98945.88
2023-03-13T22:23:39.531Z,98946.59
2023-03-13T22:26:07.811Z,98946.34
2023-03-13T22:28:35.570Z,98945.66
2023-03-13T22:31:05.331Z,98948.53
2023-03-13T22:33:35.156Z,98957.53
2023-03-13T22:36:03.412Z,98955.34
2023-03-13T22:38:31.448Z,98962.50
2023-03-13T22:41:02.606Z,98971.09
2023-03-13T22:43:30.854Z,98969.78
2023-03-13T22:45:59.900Z,98970.75
2023-03-13T22:48:27.848Z,98970.03
2023-03-13T22:51:08.445Z,98960.41
2023-03-13T22:53:37.761Z,98965.53
2023-03-13T22:56:06.347Z,98975.00
2023-03-13T22:58:34.500Z,98969.63
2023-03-13T23:01:02.310Z,98978.63
2023-03-13T23:03:30.106Z,98973.78
2023-03-13T23:05:57.833Z,98983.59
2023-03-13T23:08:26.919Z,98987.84
2023-03-13T23:10:54.911Z,98996.78
2023-03-13T23:13:22.609Z,98988.31
2023-03-13T23:15:57.415Z,98998.41
2023-03-13T23:18:26.285Z,99005.34
2023-03-13T23:20:54.340Z,98997.56
2023-03-13T23:23:22.216Z,98995.97
2023-03-13T23:25:51.427Z,98996.25
2023-03-13T23:28:19.135Z,99013.72
2023-03-13T23:30:46.840Z,99018.09
2023-03-13T23:33:14.540Z,99015.53
2023-03-13T23:35:43.826Z,99024.97
2023-03-13T23:38:12.507Z,99024.50
2023-03-13T23:40:40.249Z,99029.09
2023-03-13T23:43:09.416Z,99036.63
2023-03-13T23:45:37.669Z,99042.94
2023-03-13T23:48:05.832Z,99043.19
2023-03-13T23:50:33.646Z,99049.50
2023-03-13T23:53:01.363Z,99048.53
2023-03-13T23:55:29.190Z,99045.38
2023-03-13T23:57:56.956Z,99048.53
